Terminal Aerodrome Forecast
Issued by NWS Duluth, MN

Home | Current Version | Previous Version | Text Only | Print | Product List | Glossary On
Versions: 1 2 3 4 5 6 7 8 9 10 11 12 13 14 15 16 17 18 19 20 21 22 23 24 25 26 27 28
379
FTUS43 KDLH 281132
TAFDLH
TAF
KDLH 281132Z 2812/2912 13004KT 1 1/2SM -DZ BR VV003
      TEMPO 2812/2815 1/2SM -DZ FG OVC002
     FM281700 10006KT 3SM BR OVC006
     FM282100 10006KT P6SM VCSH OVC008
     FM290100 08004KT 3SM BR VCSH SCT005 OVC012
     FM290400 09004KT 1SM -SHRA BR OVC004=

USA.gov is the U.S. government's official web portal to all federal, state and local government web resources and services.